aviador You're here:

OERK Decoded Metar

RIYADH in SAUDI ARABIA
Report Time2018-01-16 07:00:00
UTC Time2018-01-16 07:25:37
Flight Rules vfr VFR
Wind350° at 05 kt
W.Decomp.*RWY 33: 4.8 kt HW 1.5 kt RCW
W.Rank350° ranks 1
Current wind is below 350° avg. (7.7)
Visibility9999 m
Phenomena:N/A
Clouds:N/A
Expected CloudBase > 6,800 ft AGL from Temp-Dew spread
CeilingNone
Temp15°C (ISA +4)
Dew Point-2°C (31% RH)
AAT10.9°C
QNH1026 hPa
Density Alt2,119 ft
Elevation2,008 ft
Report Wrong Elevation
Raw Report
METAR OERK 160700Z 35005KT CAVOK 15/M02 Q1026 NOSIG=

Extra information for OERK:More info

Metar Taf Metar & Taf Last 4 Metars F.Rules Stats Wind Profile Meteogram Temp Stats Airport Information Weather charts Add Link Nearby VenuesMetar ALERT Operation Metar Decoded Social comments